createdAt,value
2018-09-08T00:03:31.013Z,99.90
2018-09-08T00:08:39.866Z,99.80
2018-09-08T00:13:43.439Z,99.70
2018-09-08T00:18:54.521Z,99.90
2018-09-08T00:24:04.418Z,99.50
2018-09-08T00:29:14.843Z,99.80
2018-09-08T00:34:20.556Z,99.90
2018-09-08T00:39:24.118Z,99.70
2018-09-08T00:44:27.638Z,99.50
2018-09-08T00:49:31.218Z,99.90
2018-09-08T00:54:34.730Z,99.90
2018-09-08T00:59:38.334Z,99.10
2018-09-08T01:04:41.965Z,99.20
2018-09-08T01:09:49.572Z,99.00
2018-09-08T01:14:53.178Z,99.40
2018-09-08T01:19:58.034Z,99.10
2018-09-08T01:25:01.566Z,99.10
2018-09-08T01:30:05.342Z,99.20
2018-09-08T01:35:08.962Z,99.20
2018-09-08T01:40:12.534Z,98.80
2018-09-08T01:45:16.082Z,99.10
2018-09-08T01:50:19.579Z,99.30
2018-09-08T01:55:23.231Z,98.90
2018-09-08T02:00:30.702Z,99.40
2018-09-08T02:05:34.314Z,99.30
2018-09-08T02:10:37.939Z,99.30
2018-09-08T02:15:41.474Z,99.00
2018-09-08T02:20:51.538Z,98.80
2018-09-08T02:25:55.074Z,99.20
2018-09-08T02:31:00.682Z,98.50
2018-09-08T02:36:04.355Z,98.70
2018-09-08T02:41:08.511Z,99.10
2018-09-08T02:46:15.778Z,99.40
2018-09-08T02:51:18.188Z,99.50
2018-09-08T02:56:20.570Z,99.00
2018-09-08T03:01:22.942Z,98.70
2018-09-08T03:06:25.499Z,98.60
2018-09-08T03:11:27.894Z,98.50
2018-09-08T03:16:30.262Z,98.80
2018-09-08T03:21:32.662Z,99.30
2018-09-08T03:26:35.415Z,98.70
2018-09-08T03:31:37.786Z,98.60
2018-09-08T03:36:40.238Z,99.10
2018-09-08T03:41:42.654Z,98.80
2018-09-08T03:46:45.121Z,98.70
2018-09-08T03:51:48.471Z,98.40
2018-09-08T03:56:50.838Z,98.70
2018-09-08T04:01:53.218Z,98.70
2018-09-08T04:06:57.778Z,98.40
2018-09-08T04:12:01.343Z,98.60
2018-09-08T04:17:05.006Z,99.10
2018-09-08T04:22:08.597Z,99.40
2018-09-08T04:27:12.139Z,98.50
2018-09-08T04:32:15.716Z,98.30
2018-09-08T04:37:19.266Z,98.70
2018-09-08T04:42:22.793Z,98.50
2018-09-08T04:47:26.389Z,98.40
2018-09-08T04:52:29.915Z,98.50
2018-09-08T04:57:33.425Z,98.80
2018-09-08T05:02:37.154Z,98.30
2018-09-08T05:07:46.715Z,99.00
2018-09-08T05:12:50.265Z,98.60
2018-09-08T05:17:53.798Z,98.40
2018-09-08T05:22:57.433Z,99.00
2018-09-08T05:28:01.066Z,98.40
2018-09-08T05:33:04.631Z,99.00
2018-09-08T05:38:08.234Z,98.50
2018-09-08T05:43:11.834Z,98.70
2018-09-08T05:48:15.730Z,99.10
2018-09-08T05:53:19.264Z,97.70
2018-09-08T05:58:22.873Z,97.50
2018-09-08T06:03:26.477Z,98.30
2018-09-08T06:08:30.071Z,98.10
2018-09-08T06:13:33.738Z,98.30
2018-09-08T06:18:37.502Z,99.50
2018-09-08T06:23:41.151Z,99.70
2018-09-08T06:28:49.332Z,99.20
2018-09-08T06:33:52.863Z,99.90
2018-09-08T06:38:56.383Z,99.90
2018-09-08T06:44:00.008Z,99.90
2018-09-08T06:49:04.374Z,99.90
2018-09-08T06:54:07.970Z,99.90
2018-09-08T06:59:11.574Z,99.90
2018-09-08T07:04:20.922Z,99.90
2018-09-08T07:09:25.130Z,99.90
2018-09-08T07:14:28.751Z,99.90
2018-09-08T07:19:45.463Z,99.90
2018-09-08T07:24:52.401Z,99.90
2018-09-08T07:29:56.010Z,99.90
2018-09-08T07:34:59.635Z,99.90
2018-09-08T07:40:04.666Z,99.10
2018-09-08T07:45:08.324Z,99.90
2018-09-08T07:50:12.143Z,96.50
2018-09-08T07:55:15.837Z,89.50
2018-09-08T08:00:19.916Z,86.50
2018-09-08T08:05:24.971Z,82.70
2018-09-08T08:10:28.562Z,81.10
2018-09-08T08:15:32.424Z,79.60
2018-09-08T08:20:37.202Z,79.70
2018-09-08T08:25:41.070Z,86.00
2018-09-08T08:30:44.835Z,75.20
2018-09-08T08:35:48.810Z,78.30
2018-09-08T08:40:52.557Z,78.70
2018-09-08T08:45:56.271Z,79.10
2018-09-08T08:51:15.061Z,81.90
2018-09-08T08:56:21.469Z,76.30
2018-09-08T09:01:26.571Z,77.40
2018-09-08T09:06:31.388Z,74.90
2018-09-08T09:11:37.122Z,74.50
2018-09-08T09:16:41.285Z,72.30
2018-09-08T09:21:57.913Z,72.10
2018-09-08T09:27:04.079Z,69.60
2018-09-08T09:32:09.923Z,70.10
2018-09-08T09:37:16.848Z,69.80
2018-09-08T09:42:20.638Z,66.90
2018-09-08T09:47:25.684Z,66.60
2018-09-08T09:52:31.369Z,65.60
2018-09-08T09:57:35.234Z,63.80
2018-09-08T10:02:40.762Z,66.40
2018-09-08T10:07:44.566Z,62.00
2018-09-08T10:12:49.235Z,64.00
2018-09-08T10:17:54.154Z,64.90
2018-09-08T10:22:57.918Z,59.20
2018-09-08T10:28:01.737Z,60.30
2018-09-08T10:33:07.446Z,53.50
2018-09-08T10:38:11.403Z,61.00
2018-09-08T10:43:15.100Z,53.70
2018-09-08T10:48:18.779Z,51.20
2018-09-08T10:53:22.539Z,57.90
2018-09-08T10:58:26.212Z,59.60
2018-09-08T11:03:29.957Z,59.80
2018-09-08T11:08:34.343Z,60.60
2018-09-08T11:13:38.119Z,62.40
2018-09-08T11:18:42.819Z,63.30
2018-09-08T11:23:47.267Z,66.00
2018-09-08T11:28:54.786Z,54.80
2018-09-08T11:33:58.573Z,57.60
2018-09-08T11:39:07.120Z,59.10
2018-09-08T11:44:12.247Z,57.30
2018-09-08T11:49:17.117Z,54.80
2018-09-08T11:54:24.977Z,63.90
2018-09-08T11:59:28.938Z,63.10
2018-09-08T12:04:34.624Z,57.50
2018-09-08T12:09:38.204Z,63.10
2018-09-08T12:14:42.002Z,57.90
2018-09-08T12:19:45.582Z,53.90
2018-09-08T12:24:53.278Z,58.60
2018-09-08T12:29:57.722Z,56.60
2018-09-08T12:35:01.321Z,60.30
2018-09-08T12:40:08.419Z,56.20
2018-09-08T12:45:12.455Z,56.70
2018-09-08T12:50:16.146Z,56.70
2018-09-08T12:55:20.833Z,62.30
2018-09-08T13:00:26.366Z,54.80
2018-09-08T13:05:30.036Z,58.60
2018-09-08T13:10:33.751Z,56.70
2018-09-08T13:15:37.434Z,56.30
2018-09-08T13:20:45.710Z,58.00
2018-09-08T13:25:49.447Z,56.80
2018-09-08T13:30:56.299Z,58.80
2018-09-08T13:35:59.910Z,60.60
2018-09-08T13:41:05.690Z,63.30
2018-09-08T13:46:09.442Z,57.80
2018-09-08T13:51:13.225Z,62.10
2018-09-08T13:56:16.964Z,64.10
2018-09-08T14:01:25.427Z,58.50
2018-09-08T14:06:29.167Z,54.90
2018-09-08T14:11:32.947Z,58.10
2018-09-08T14:16:36.677Z,57.90
2018-09-08T14:21:40.672Z,52.90
2018-09-08T14:26:44.370Z,55.90
2018-09-08T14:31:50.308Z,56.30
2018-09-08T14:36:54.031Z,63.90
2018-09-08T14:41:57.896Z,57.60
2018-09-08T14:47:01.446Z,56.40
2018-09-08T14:52:05.099Z,54.50
2018-09-08T14:57:08.696Z,54.80
2018-09-08T15:02:12.348Z,58.40
2018-09-08T15:07:15.938Z,63.10
2018-09-08T15:12:20.825Z,59.00
2018-09-08T15:17:24.346Z,55.60
2018-09-08T15:22:29.987Z,56.30
2018-09-08T15:27:33.723Z,56.20
2018-09-08T15:32:39.682Z,57.00
2018-09-08T15:37:43.787Z,54.40
2018-09-08T15:42:49.361Z,55.40
2018-09-08T15:47:53.015Z,55.70
2018-09-08T15:52:56.560Z,63.20
2018-09-08T15:58:03.646Z,57.60
2018-09-08T16:03:07.318Z,61.90
2018-09-08T16:08:11.983Z,60.30
2018-09-08T16:13:15.565Z,61.90
2018-09-08T16:18:19.241Z,58.00
2018-09-08T16:23:24.973Z,60.20
2018-09-08T16:28:29.235Z,58.70
2018-09-08T16:33:33.049Z,58.10
2018-09-08T16:38:39.821Z,58.80
2018-09-08T16:43:43.443Z,62.50
2018-09-08T16:48:50.234Z,65.30
2018-09-08T16:53:53.807Z,63.70
2018-09-08T16:58:57.467Z,60.60
2018-09-08T17:04:01.123Z,62.40
2018-09-08T17:09:06.003Z,64.30
2018-09-08T17:14:09.559Z,64.50
2018-09-08T17:19:16.216Z,64.60
2018-09-08T17:24:20.963Z,65.00
2018-09-08T17:29:24.554Z,66.50
2018-09-08T17:34:28.674Z,67.40
2018-09-08T17:39:39.478Z,66.60
2018-09-08T17:44:43.271Z,69.70
2018-09-08T17:49:47.546Z,71.40
2018-09-08T17:54:51.114Z,70.30
2018-09-08T17:59:56.438Z,70.20
2018-09-08T18:05:00.143Z,75.10
2018-09-08T18:10:09.765Z,72.40
2018-09-08T18:15:14.013Z,75.40
2018-09-08T18:20:17.685Z,75.20
2018-09-08T18:25:21.343Z,77.90
2018-09-08T18:30:25.342Z,78.60
2018-09-08T18:35:35.218Z,72.60
2018-09-08T18:40:44.202Z,78.60
2018-09-08T18:45:53.617Z,83.90
2018-09-08T18:51:00.621Z,83.50
2018-09-08T18:56:05.443Z,79.70
2018-09-08T19:01:09.097Z,82.60
2018-09-08T19:06:13.905Z,84.60
2018-09-08T19:11:22.294Z,80.90
2018-09-08T19:16:25.956Z,81.80
2018-09-08T19:21:29.558Z,80.00
2018-09-08T19:26:36.518Z,81.60
2018-09-08T19:36:49.393Z,81.60
2018-09-08T19:41:54.218Z,84.30
2018-09-08T19:47:07.714Z,85.50
2018-09-08T19:52:20.549Z,83.90
2018-09-08T19:57:29.442Z,84.80
2018-09-08T20:02:34.173Z,87.80
2018-09-08T20:07:38.526Z,84.80
2018-09-08T20:12:42.243Z,85.50
2018-09-08T20:17:46.086Z,87.10
2018-09-08T20:22:50.827Z,87.60
2018-09-08T20:27:54.452Z,88.30
2018-09-08T20:32:58.195Z,89.00
2018-09-08T20:38:02.742Z,89.10
2018-09-08T20:43:06.386Z,90.40
2018-09-08T20:48:10.113Z,89.90
2018-09-08T20:53:13.791Z,90.00
2018-09-08T20:58:17.627Z,90.00
2018-09-08T21:03:21.206Z,90.20
2018-09-08T21:08:24.974Z,91.10
2018-09-08T21:13:29.334Z,90.80
2018-09-08T21:18:34.286Z,90.50
2018-09-08T21:23:38.943Z,91.40
2018-09-08T21:28:44.581Z,91.90
2018-09-08T21:33:48.266Z,91.40
2018-09-08T21:38:52.038Z,90.70
2018-09-08T21:43:59.495Z,90.90
2018-09-08T21:49:03.246Z,91.70
2018-09-08T21:54:06.886Z,92.30
2018-09-08T21:59:10.531Z,92.50
2018-09-08T22:04:14.219Z,93.10
2018-09-08T22:09:17.817Z,93.30
2018-09-08T22:14:21.469Z,93.50
2018-09-08T22:19:27.385Z,93.50
2018-09-08T22:24:30.918Z,93.00
2018-09-08T22:29:34.567Z,93.00
2018-09-08T22:34:38.099Z,93.20
2018-09-08T22:39:46.357Z,92.90
2018-09-08T22:44:49.971Z,93.20
2018-09-08T22:49:53.598Z,93.20
2018-09-08T22:54:57.155Z,93.00
2018-09-08T23:00:00.798Z,93.70
2018-09-08T23:05:04.478Z,94.30
2018-09-08T23:10:08.290Z,93.70
2018-09-08T23:15:11.834Z,94.30
2018-09-08T23:20:15.462Z,94.00
2018-09-08T23:25:19.154Z,94.10
2018-09-08T23:30:22.846Z,94.80
2018-09-08T23:35:26.416Z,95.20
2018-09-08T23:40:30.150Z,93.70
2018-09-08T23:45:33.751Z,93.90
2018-09-08T23:50:37.254Z,94.30
2018-09-08T23:55:40.801Z,95.00
